sensor_id;sensor_type;location;lat;lon;timestamp;pressure;altitude;pressure_sealevel;temperature;humidity
77299;BME280;66361;52.034;20.656;2023-07-13T00:02:01;99413.38;;;16.24;100.00
77299;BME280;66361;52.034;20.656;2023-07-13T00:06:05;99411.66;;;16.33;100.00
77299;BME280;66361;52.034;20.656;2023-07-13T00:10:08;99411.34;;;16.36;100.00
77299;BME280;66361;52.034;20.656;2023-07-13T00:14:11;99410.34;;;16.37;100.00
77299;BME280;66361;52.034;20.656;2023-07-13T00:18:16;99418.19;;;16.38;100.00
77299;BME280;66361;52.034;20.656;2023-07-13T00:22:19;99413.03;;;16.37;100.00
77299;BME280;66361;52.034;20.656;2023-07-13T00:26:23;99398.34;;;16.33;100.00
77299;BME280;66361;52.034;20.656;2023-07-13T00:30:26;99401.13;;;16.31;100.00
77299;BME280;66361;52.034;20.656;2023-07-13T00:34:31;99402.19;;;16.38;100.00
77299;BME280;66361;52.034;20.656;2023-07-13T00:38:34;99393.22;;;16.39;100.00
77299;BME280;66361;52.034;20.656;2023-07-13T00:42:38;99395.06;;;16.39;100.00
77299;BME280;66361;52.034;20.656;2023-07-13T00:46:41;99384.00;;;16.34;100.00
77299;BME280;66361;52.034;20.656;2023-07-13T00:50:49;99391.84;;;16.35;100.00
77299;BME280;66361;52.034;20.656;2023-07-13T00:54:53;99390.41;;;16.41;100.00
77299;BME280;66361;52.034;20.656;2023-07-13T00:58:57;99384.09;;;16.42;100.00
77299;BME280;66361;52.034;20.656;2023-07-13T01:03:03;99393.91;;;16.41;100.00
77299;BME280;66361;52.034;20.656;2023-07-13T01:07:35;99394.06;;;16.40;100.00
77299;BME280;66361;52.034;20.656;2023-07-13T01:11:39;99397.03;;;16.37;100.00
77299;BME280;66361;52.034;20.656;2023-07-13T01:15:44;99399.16;;;16.33;100.00
77299;BME280;66361;52.034;20.656;2023-07-13T01:19:47;99407.13;;;16.33;100.00
77299;BME280;66361;52.034;20.656;2023-07-13T01:23:52;99414.97;;;16.35;100.00
77299;BME280;66361;52.034;20.656;2023-07-13T01:27:58;99423.41;;;16.30;100.00
77299;BME280;66361;52.034;20.656;2023-07-13T01:32:02;99420.31;;;16.35;100.00
77299;BME280;66361;52.034;20.656;2023-07-13T01:36:05;99427.63;;;16.33;100.00
77299;BME280;66361;52.034;20.656;2023-07-13T01:40:11;99420.63;;;16.32;100.00
77299;BME280;66361;52.034;20.656;2023-07-13T01:44:14;99420.22;;;16.27;100.00
77299;BME280;66361;52.034;20.656;2023-07-13T01:48:18;99415.72;;;16.27;100.00
77299;BME280;66361;52.034;20.656;2023-07-13T01:52:21;99414.59;;;16.30;100.00
77299;BME280;66361;52.034;20.656;2023-07-13T01:56:26;99426.25;;;16.29;100.00
77299;BME280;66361;52.034;20.656;2023-07-13T02:00:29;99427.91;;;16.30;100.00
77299;BME280;66361;52.034;20.656;2023-07-13T02:04:33;99421.91;;;16.28;100.00
77299;BME280;66361;52.034;20.656;2023-07-13T02:08:37;99434.69;;;16.24;100.00
77299;BME280;66361;52.034;20.656;2023-07-13T02:12:42;99441.69;;;16.25;100.00
77299;BME280;66361;52.034;20.656;2023-07-13T02:16:44;99439.28;;;16.22;100.00
77299;BME280;66361;52.034;20.656;2023-07-13T02:20:47;99442.13;;;16.21;100.00
77299;BME280;66361;52.034;20.656;2023-07-13T02:24:51;99437.38;;;16.15;100.00
77299;BME280;66361;52.034;20.656;2023-07-13T02:28:56;99434.03;;;16.13;100.00
77299;BME280;66361;52.034;20.656;2023-07-13T02:32:59;99427.75;;;16.14;100.00
77299;BME280;66361;52.034;20.656;2023-07-13T02:37:03;99415.81;;;16.18;100.00
77299;BME280;66361;52.034;20.656;2023-07-13T02:41:08;99420.59;;;16.14;100.00
77299;BME280;66361;52.034;20.656;2023-07-13T02:45:13;99429.31;;;16.07;100.00
77299;BME280;66361;52.034;20.656;2023-07-13T02:49:16;99427.09;;;16.02;100.00
77299;BME280;66361;52.034;20.656;2023-07-13T02:53:20;99435.75;;;16.04;100.00
77299;BME280;66361;52.034;20.656;2023-07-13T02:57:23;99438.59;;;16.03;100.00
77299;BME280;66361;52.034;20.656;2023-07-13T03:01:28;99431.03;;;15.98;100.00
77299;BME280;66361;52.034;20.656;2023-07-13T03:05:31;99429.66;;;15.94;100.00
77299;BME280;66361;52.034;20.656;2023-07-13T03:09:34;99428.69;;;15.95;100.00
77299;BME280;66361;52.034;20.656;2023-07-13T03:13:40;99426.56;;;15.98;100.00
77299;BME280;66361;52.034;20.656;2023-07-13T03:17:48;99423.50;;;15.93;100.00
77299;BME280;66361;52.034;20.656;2023-07-13T03:21:51;99416.50;;;15.92;100.00
77299;BME280;66361;52.034;20.656;2023-07-13T03:26:05;99408.38;;;15.94;100.00
77299;BME280;66361;52.034;20.656;2023-07-13T03:30:10;99405.09;;;16.00;100.00
77299;BME280;66361;52.034;20.656;2023-07-13T03:34:15;99414.44;;;16.14;100.00
77299;BME280;66361;52.034;20.656;2023-07-13T03:38:18;99403.66;;;16.33;100.00
77299;BME280;66361;52.034;20.656;2023-07-13T03:42:21;99408.59;;;16.45;100.00
77299;BME280;66361;52.034;20.656;2023-07-13T03:46:24;99402.75;;;16.60;100.00
77299;BME280;66361;52.034;20.656;2023-07-13T03:50:29;99407.94;;;16.79;100.00
77299;BME280;66361;52.034;20.656;2023-07-13T03:54:32;99414.91;;;16.98;100.00
77299;BME280;66361;52.034;20.656;2023-07-13T03:58:38;99420.97;;;17.25;100.00
77299;BME280;66361;52.034;20.656;2023-07-13T04:02:41;99428.91;;;17.69;100.00
77299;BME280;66361;52.034;20.656;2023-07-13T04:06:45;99428.31;;;18.25;100.00
77299;BME280;66361;52.034;20.656;2023-07-13T04:10:48;99425.78;;;18.65;100.00
77299;BME280;66361;52.034;20.656;2023-07-13T04:14:51;99433.50;;;18.84;100.00
77299;BME280;66361;52.034;20.656;2023-07-13T04:18:56;99444.19;;;19.01;100.00
77299;BME280;66361;52.034;20.656;2023-07-13T04:23:03;99450.88;;;18.97;100.00
77299;BME280;66361;52.034;20.656;2023-07-13T04:27:06;99463.72;;;18.93;100.00
77299;BME280;66361;52.034;20.656;2023-07-13T04:31:09;99462.25;;;18.91;100.00
77299;BME280;66361;52.034;20.656;2023-07-13T04:35:13;99472.09;;;18.98;100.00
77299;BME280;66361;52.034;20.656;2023-07-13T04:39:18;99476.44;;;19.07;100.00
77299;BME280;66361;52.034;20.656;2023-07-13T04:43:22;99483.63;;;19.15;100.00
77299;BME280;66361;52.034;20.656;2023-07-13T04:47:25;99474.63;;;19.24;100.00
77299;BME280;66361;52.034;20.656;2023-07-13T04:51:31;99468.91;;;19.35;100.00
77299;BME280;66361;52.034;20.656;2023-07-13T04:55:36;99472.09;;;19.39;100.00
77299;BME280;66361;52.034;20.656;2023-07-13T04:59:39;99480.63;;;19.42;100.00
77299;BME280;66361;52.034;20.656;2023-07-13T05:03:42;99487.66;;;19.43;100.00
77299;BME280;66361;52.034;20.656;2023-07-13T05:07:46;99479.97;;;19.56;100.00
77299;BME280;66361;52.034;20.656;2023-07-13T05:11:51;99497.19;;;19.78;100.00
77299;BME280;66361;52.034;20.656;2023-07-13T05:15:58;99486.72;;;20.07;100.00
77299;BME280;66361;52.034;20.656;2023-07-13T05:20:04;99492.78;;;20.32;100.00
77299;BME280;66361;52.034;20.656;2023-07-13T05:24:07;99504.56;;;20.62;99.31
77299;BME280;66361;52.034;20.656;2023-07-13T05:28:26;99512.13;;;20.89;98.96
77299;BME280;66361;52.034;20.656;2023-07-13T05:32:31;99520.88;;;21.06;98.83
77299;BME280;66361;52.034;20.656;2023-07-13T05:36:34;99512.16;;;21.12;99.82
77299;BME280;66361;52.034;20.656;2023-07-13T05:40:37;99527.72;;;21.16;100.00
77299;BME280;66361;52.034;20.656;2023-07-13T05:44:42;99520.38;;;21.33;98.10
77299;BME280;66361;52.034;20.656;2023-07-13T05:48:45;99526.41;;;21.58;97.18
77299;BME280;66361;52.034;20.656;2023-07-13T05:52:48;99519.47;;;21.78;88.06
77299;BME280;66361;52.034;20.656;2023-07-13T05:56:51;99513.94;;;22.09;89.12
77299;BME280;66361;52.034;20.656;2023-07-13T06:01:01;99496.03;;;22.60;89.54
77299;BME280;66361;52.034;20.656;2023-07-13T06:05:05;99500.75;;;23.30;86.04
77299;BME280;66361;52.034;20.656;2023-07-13T06:09:09;99502.28;;;24.29;78.96
77299;BME280;66361;52.034;20.656;2023-07-13T06:13:12;99510.56;;;25.81;70.58
77299;BME280;66361;52.034;20.656;2023-07-13T06:17:17;99504.31;;;25.41;69.74
77299;BME280;66361;52.034;20.656;2023-07-13T06:21:22;99513.81;;;25.04;71.57
77299;BME280;66361;52.034;20.656;2023-07-13T06:25:26;99536.97;;;25.40;74.09
77299;BME280;66361;52.034;20.656;2023-07-13T06:29:32;99536.13;;;27.27;67.98
77299;BME280;66361;52.034;20.656;2023-07-13T06:33:40;99528.91;;;30.97;52.31
77299;BME280;66361;52.034;20.656;2023-07-13T06:37:43;99530.41;;;33.20;45.95
77299;BME280;66361;52.034;20.656;2023-07-13T06:41:47;99526.09;;;33.55;44.05
77299;BME280;66361;52.034;20.656;2023-07-13T06:45:56;99522.16;;;35.50;39.16
77299;BME280;66361;52.034;20.656;2023-07-13T06:50:00;99523.81;;;35.30;38.57
77299;BME280;66361;52.034;20.656;2023-07-13T06:54:04;99523.09;;;34.26;39.22
77299;BME280;66361;52.034;20.656;2023-07-13T06:58:07;99528.38;;;34.99;37.82
77299;BME280;66361;52.034;20.656;2023-07-13T07:02:12;99518.31;;;34.53;40.04
77299;BME280;66361;52.034;20.656;2023-07-13T07:06:22;99519.94;;;35.16;38.59
77299;BME280;66361;52.034;20.656;2023-07-13T07:10:26;99516.97;;;35.68;36.23
77299;BME280;66361;52.034;20.656;2023-07-13T07:14:29;99527.09;;;35.58;35.41
77299;BME280;66361;52.034;20.656;2023-07-13T07:18:32;99533.13;;;35.34;39.54
77299;BME280;66361;52.034;20.656;2023-07-13T07:22:37;99528.31;;;34.79;37.85
77299;BME280;66361;52.034;20.656;2023-07-13T07:26:40;99526.06;;;33.82;39.80
77299;BME280;66361;52.034;20.656;2023-07-13T07:30:46;99521.63;;;35.53;36.51
77299;BME280;66361;52.034;20.656;2023-07-13T07:34:57;99527.94;;;35.53;36.72
77299;BME280;66361;52.034;20.656;2023-07-13T07:39:02;99518.13;;;34.18;37.45
77299;BME280;66361;52.034;20.656;2023-07-13T07:43:08;99524.63;;;35.51;38.31
77299;BME280;66361;52.034;20.656;2023-07-13T07:47:16;99531.88;;;36.77;33.85
77299;BME280;66361;52.034;20.656;2023-07-13T07:51:19;99526.53;;;36.06;34.62
77299;BME280;66361;52.034;20.656;2023-07-13T07:55:27;99524.09;;;37.38;32.47
77299;BME280;66361;52.034;20.656;2023-07-13T07:59:36;99541.50;;;38.06;29.78
77299;BME280;66361;52.034;20.656;2023-07-13T08:03:42;99540.63;;;37.38;31.92
77299;BME280;66361;52.034;20.656;2023-07-13T08:07:51;99534.28;;;35.79;34.02
77299;BME280;66361;52.034;20.656;2023-07-13T08:12:00;99530.94;;;35.31;35.49
77299;BME280;66361;52.034;20.656;2023-07-13T08:16:06;99527.38;;;35.61;35.85
77299;BME280;66361;52.034;20.656;2023-07-13T08:20:10;99521.94;;;35.81;34.78
77299;BME280;66361;52.034;20.656;2023-07-13T08:24:14;99515.47;;;36.52;33.25
77299;BME280;66361;52.034;20.656;2023-07-13T08:28:25;99522.19;;;36.05;35.08
77299;BME280;66361;52.034;20.656;2023-07-13T08:32:28;99521.44;;;33.24;38.50
77299;BME280;66361;52.034;20.656;2023-07-13T08:36:31;99526.03;;;33.19;41.70
77299;BME280;66361;52.034;20.656;2023-07-13T08:40:34;99529.03;;;32.95;41.33
77299;BME280;66361;52.034;20.656;2023-07-13T08:49:11;99532.03;;;34.58;37.21
77299;BME280;66361;52.034;20.656;2023-07-13T08:53:17;99538.19;;;33.33;40.40
77299;BME280;66361;52.034;20.656;2023-07-13T08:57:26;99533.75;;;31.68;43.38
77299;BME280;66361;52.034;20.656;2023-07-13T09:01:44;99520.88;;;32.35;43.24
77299;BME280;66361;52.034;20.656;2023-07-13T09:05:53;99524.75;;;32.01;42.79
77299;BME280;66361;52.034;20.656;2023-07-13T09:12:19;99518.34;;;31.29;43.31
77299;BME280;66361;52.034;20.656;2023-07-13T09:16:27;99512.59;;;31.13;46.07
77299;BME280;66361;52.034;20.656;2023-07-13T09:20:34;99522.97;;;31.00;44.84
77299;BME280;66361;52.034;20.656;2023-07-13T09:24:41;99512.75;;;30.67;46.21
77299;BME280;66361;52.034;20.656;2023-07-13T09:28:57;99526.56;;;31.17;45.95
77299;BME280;66361;52.034;20.656;2023-07-13T09:33:01;99510.50;;;32.15;42.25
77299;BME280;66361;52.034;20.656;2023-07-13T09:37:06;99508.53;;;33.46;41.56
77299;BME280;66361;52.034;20.656;2023-07-13T09:41:19;99504.75;;;34.88;36.69
77299;BME280;66361;52.034;20.656;2023-07-13T09:45:31;99493.84;;;34.36;35.49
77299;BME280;66361;52.034;20.656;2023-07-13T09:49:35;99484.66;;;32.88;39.19
77299;BME280;66361;52.034;20.656;2023-07-13T09:53:41;99474.09;;;32.10;43.70
77299;BME280;66361;52.034;20.656;2023-07-13T09:57:47;99483.63;;;30.96;45.35
77299;BME280;66361;52.034;20.656;2023-07-13T10:01:53;99478.88;;;30.11;46.37
77299;BME280;66361;52.034;20.656;2023-07-13T10:06:03;99471.31;;;29.14;50.57
77299;BME280;66361;52.034;20.656;2023-07-13T10:10:15;99460.13;;;28.92;53.67
77299;BME280;66361;52.034;20.656;2023-07-13T10:14:21;99463.59;;;28.69;53.29
77299;BME280;66361;52.034;20.656;2023-07-13T10:18:29;99457.94;;;28.53;53.92
77299;BME280;66361;52.034;20.656;2023-07-13T10:22:42;99453.81;;;28.50;52.72
77299;BME280;66361;52.034;20.656;2023-07-13T10:26:54;99457.44;;;29.45;52.62
77299;BME280;66361;52.034;20.656;2023-07-13T10:31:01;99455.84;;;30.82;46.85
77299;BME280;66361;52.034;20.656;2023-07-13T10:35:12;99467.00;;;30.41;46.05
77299;BME280;66361;52.034;20.656;2023-07-13T10:39:19;99470.00;;;30.27;47.20
77299;BME280;66361;52.034;20.656;2023-07-13T10:43:25;99469.44;;;28.84;50.29
77299;BME280;66361;52.034;20.656;2023-07-13T10:47:30;99477.13;;;29.17;50.39
77299;BME280;66361;52.034;20.656;2023-07-13T10:51:35;99515.38;;;28.86;52.13
77299;BME280;66361;52.034;20.656;2023-07-13T10:55:41;99516.22;;;25.93;53.16
77299;BME280;66361;52.034;20.656;2023-07-13T11:00:16;99527.31;;;24.98;55.91
77299;BME280;66361;52.034;20.656;2023-07-13T11:04:21;99529.69;;;24.32;58.78
77299;BME280;66361;52.034;20.656;2023-07-13T11:08:34;99525.22;;;23.56;58.40
77299;BME280;66361;52.034;20.656;2023-07-13T11:12:53;99529.41;;;23.37;59.71
77299;BME280;66361;52.034;20.656;2023-07-13T11:16:56;99538.13;;;23.18;59.81
77299;BME280;66361;52.034;20.656;2023-07-13T11:21:14;99593.97;;;23.31;60.71
77299;BME280;66361;52.034;20.656;2023-07-13T11:25:34;99621.72;;;22.66;63.44
77299;BME280;66361;52.034;20.656;2023-07-13T11:29:39;99607.91;;;22.40;66.00
77299;BME280;66361;52.034;20.656;2023-07-13T11:33:53;99610.66;;;21.80;72.83
77299;BME280;66361;52.034;20.656;2023-07-13T11:38:00;99607.59;;;21.06;80.61
77299;BME280;66361;52.034;20.656;2023-07-13T11:42:08;99604.03;;;21.14;82.53
77299;BME280;66361;52.034;20.656;2023-07-13T11:46:15;99600.34;;;21.15;82.58
77299;BME280;66361;52.034;20.656;2023-07-13T11:50:20;99592.44;;;21.13;83.96
77299;BME280;66361;52.034;20.656;2023-07-13T11:54:27;99595.50;;;21.10;84.94
77299;BME280;66361;52.034;20.656;2023-07-13T11:58:32;99592.50;;;21.36;85.15
77299;BME280;66361;52.034;20.656;2023-07-13T12:02:40;99590.81;;;21.43;84.63
77299;BME280;66361;52.034;20.656;2023-07-13T12:06:45;99595.41;;;21.95;82.57
77299;BME280;66361;52.034;20.656;2023-07-13T12:10:48;99597.94;;;21.51;83.74
77299;BME280;66361;52.034;20.656;2023-07-13T12:15:00;99611.34;;;21.73;83.66
77299;BME280;66361;52.034;20.656;2023-07-13T12:19:08;99613.69;;;21.77;79.38
77299;BME280;66361;52.034;20.656;2023-07-13T12:23:21;99603.56;;;22.01;79.16
77299;BME280;66361;52.034;20.656;2023-07-13T12:27:27;99614.06;;;22.11;78.53
77299;BME280;66361;52.034;20.656;2023-07-13T12:31:35;99617.16;;;22.00;78.10
77299;BME280;66361;52.034;20.656;2023-07-13T12:35:40;99606.00;;;22.11;79.32
77299;BME280;66361;52.034;20.656;2023-07-13T12:39:47;99611.78;;;22.00;80.52
77299;BME280;66361;52.034;20.656;2023-07-13T12:43:52;99610.88;;;22.07;81.53
77299;BME280;66361;52.034;20.656;2023-07-13T12:47:58;99608.03;;;21.71;84.42
77299;BME280;66361;52.034;20.656;2023-07-13T12:52:11;99606.59;;;21.61;82.13
77299;BME280;66361;52.034;20.656;2023-07-13T12:56:20;99598.53;;;21.61;84.98
77299;BME280;66361;52.034;20.656;2023-07-13T13:00:29;99601.88;;;21.63;89.04
77299;BME280;66361;52.034;20.656;2023-07-13T13:04:39;99603.59;;;21.56;84.04
77299;BME280;66361;52.034;20.656;2023-07-13T13:08:45;99606.34;;;21.48;85.08
77299;BME280;66361;52.034;20.656;2023-07-13T13:12:50;99600.56;;;21.59;86.58
77299;BME280;66361;52.034;20.656;2023-07-13T13:16:53;99610.00;;;21.55;92.96
77299;BME280;66361;52.034;20.656;2023-07-13T13:20:58;99603.06;;;21.60;90.49
77299;BME280;66361;52.034;20.656;2023-07-13T13:25:02;99610.72;;;21.71;88.51
77299;BME280;66361;52.034;20.656;2023-07-13T13:29:17;99607.69;;;21.89;90.08
77299;BME280;66361;52.034;20.656;2023-07-13T13:33:21;99607.31;;;21.92;88.51
77299;BME280;66361;52.034;20.656;2023-07-13T13:37:26;99617.34;;;21.84;91.01
77299;BME280;66361;52.034;20.656;2023-07-13T13:41:29;99615.13;;;21.87;88.57
77299;BME280;66361;52.034;20.656;2023-07-13T13:45:32;99617.50;;;21.82;86.87
77299;BME280;66361;52.034;20.656;2023-07-13T13:49:35;99617.75;;;21.72;89.44
77299;BME280;66361;52.034;20.656;2023-07-13T13:53:40;99613.88;;;21.75;90.20
77299;BME280;66361;52.034;20.656;2023-07-13T13:57:43;99615.00;;;21.81;90.18
77299;BME280;66361;52.034;20.656;2023-07-13T14:01:47;99615.19;;;21.79;86.94
77299;BME280;66361;52.034;20.656;2023-07-13T14:05:51;99620.19;;;21.82;89.13
77299;BME280;66361;52.034;20.656;2023-07-13T14:09:57;99612.38;;;21.72;90.63
77299;BME280;66361;52.034;20.656;2023-07-13T14:14:01;99617.06;;;21.93;88.86
77299;BME280;66361;52.034;20.656;2023-07-13T14:18:07;99630.94;;;21.82;88.90
77299;BME280;66361;52.034;20.656;2023-07-13T14:22:11;99618.28;;;21.91;91.38
77299;BME280;66361;52.034;20.656;2023-07-13T14:26:18;99644.50;;;22.03;92.66
77299;BME280;66361;52.034;20.656;2023-07-13T14:30:22;99642.13;;;22.08;90.31
77299;BME280;66361;52.034;20.656;2023-07-13T14:34:25;99636.88;;;22.15;86.43
77299;BME280;66361;52.034;20.656;2023-07-13T14:38:28;99648.28;;;22.17;89.03
77299;BME280;66361;52.034;20.656;2023-07-13T14:42:33;99645.41;;;21.96;87.54
77299;BME280;66361;52.034;20.656;2023-07-13T14:46:36;99646.38;;;22.03;85.05
77299;BME280;66361;52.034;20.656;2023-07-13T14:50:43;99644.84;;;21.63;88.87
77299;BME280;66361;52.034;20.656;2023-07-13T14:54:49;99649.16;;;21.49;90.67
77299;BME280;66361;52.034;20.656;2023-07-13T14:58:53;99644.97;;;21.47;87.09
77299;BME280;66361;52.034;20.656;2023-07-13T15:02:58;99659.03;;;21.18;89.88
77299;BME280;66361;52.034;20.656;2023-07-13T15:07:03;99657.44;;;21.01;92.83
77299;BME280;66361;52.034;20.656;2023-07-13T15:11:06;99661.34;;;20.90;93.21
77299;BME280;66361;52.034;20.656;2023-07-13T15:15:11;99662.03;;;20.84;93.59
77299;BME280;66361;52.034;20.656;2023-07-13T15:19:20;99661.88;;;20.86;91.41
77299;BME280;66361;52.034;20.656;2023-07-13T15:23:27;99654.63;;;20.94;87.44
77299;BME280;66361;52.034;20.656;2023-07-13T15:27:31;99650.16;;;20.78;90.47
77299;BME280;66361;52.034;20.656;2023-07-13T15:31:35;99650.19;;;20.70;92.17
77299;BME280;66361;52.034;20.656;2023-07-13T15:35:41;99647.66;;;20.69;93.67
77299;BME280;66361;52.034;20.656;2023-07-13T15:39:44;99653.19;;;20.75;93.75
77299;BME280;66361;52.034;20.656;2023-07-13T15:43:48;99654.34;;;20.73;94.28
77299;BME280;66361;52.034;20.656;2023-07-13T15:47:53;99660.53;;;20.82;94.00
77299;BME280;66361;52.034;20.656;2023-07-13T15:51:57;99659.66;;;20.97;91.68
77299;BME280;66361;52.034;20.656;2023-07-13T15:56:02;99661.59;;;21.11;88.16
77299;BME280;66361;52.034;20.656;2023-07-13T16:00:20;99659.16;;;21.24;89.87
77299;BME280;66361;52.034;20.656;2023-07-13T16:04:24;99671.56;;;21.25;90.49
77299;BME280;66361;52.034;20.656;2023-07-13T16:08:31;99675.59;;;21.30;90.04
77299;BME280;66361;52.034;20.656;2023-07-13T16:12:34;99680.63;;;21.33;86.31
77299;BME280;66361;52.034;20.656;2023-07-13T16:16:41;99680.97;;;21.21;89.55
77299;BME280;66361;52.034;20.656;2023-07-13T16:20:49;99675.31;;;21.16;84.97
77299;BME280;66361;52.034;20.656;2023-07-13T16:24:53;99668.75;;;21.19;86.28
77299;BME280;66361;52.034;20.656;2023-07-13T16:28:58;99674.13;;;21.19;87.12
77299;BME280;66361;52.034;20.656;2023-07-13T16:33:06;99662.19;;;21.30;84.05
77299;BME280;66361;52.034;20.656;2023-07-13T16:37:16;99659.69;;;21.20;84.82
77299;BME280;66361;52.034;20.656;2023-07-13T16:41:20;99656.44;;;21.33;82.74
77299;BME280;66361;52.034;20.656;2023-07-13T16:45:24;99667.56;;;21.30;85.14
77299;BME280;66361;52.034;20.656;2023-07-13T16:49:29;99667.81;;;21.43;83.75
77299;BME280;66361;52.034;20.656;2023-07-13T16:53:34;99669.72;;;21.34;82.53
77299;BME280;66361;52.034;20.656;2023-07-13T16:57:37;99671.84;;;21.47;82.25
77299;BME280;66361;52.034;20.656;2023-07-13T17:01:43;99676.59;;;21.59;79.42
77299;BME280;66361;52.034;20.656;2023-07-13T17:05:48;99692.53;;;21.61;80.52
77299;BME280;66361;52.034;20.656;2023-07-13T17:09:53;99693.03;;;21.64;78.18
77299;BME280;66361;52.034;20.656;2023-07-13T17:13:56;99692.22;;;21.56;78.64
77299;BME280;66361;52.034;20.656;2023-07-13T17:17:59;99707.06;;;21.44;82.69
77299;BME280;66361;52.034;20.656;2023-07-13T17:22:10;99704.78;;;21.24;80.55
77299;BME280;66361;52.034;20.656;2023-07-13T17:26:19;99691.59;;;21.15;82.46
77299;BME280;66361;52.034;20.656;2023-07-13T17:30:22;99699.69;;;20.99;85.78
77299;BME280;66361;52.034;20.656;2023-07-13T17:34:25;99698.91;;;20.90;83.00
77299;BME280;66361;52.034;20.656;2023-07-13T17:38:31;99705.22;;;21.05;81.99
77299;BME280;66361;52.034;20.656;2023-07-13T17:42:37;99693.66;;;21.05;83.99
77299;BME280;66361;52.034;20.656;2023-07-13T17:46:40;99687.06;;;21.15;83.51
77299;BME280;66361;52.034;20.656;2023-07-13T17:50:44;99679.31;;;21.20;80.70
77299;BME280;66361;52.034;20.656;2023-07-13T17:54:49;99684.22;;;21.17;82.66
77299;BME280;66361;52.034;20.656;2023-07-13T17:58:55;99673.66;;;21.07;79.97
77299;BME280;66361;52.034;20.656;2023-07-13T18:03:00;99675.25;;;20.94;84.63
77299;BME280;66361;52.034;20.656;2023-07-13T18:07:08;99670.97;;;20.68;83.17
77299;BME280;66361;52.034;20.656;2023-07-13T18:11:18;99666.69;;;20.43;83.68
77299;BME280;66361;52.034;20.656;2023-07-13T18:15:25;99666.72;;;20.11;85.45
77299;BME280;66361;52.034;20.656;2023-07-13T18:19:32;99675.41;;;19.80;89.42
77299;BME280;66361;52.034;20.656;2023-07-13T18:23:36;99691.41;;;19.48;89.69
77299;BME280;66361;52.034;20.656;2023-07-13T18:27:39;99685.47;;;19.20;92.77
77299;BME280;66361;52.034;20.656;2023-07-13T18:31:44;99691.03;;;18.93;94.94
77299;BME280;66361;52.034;20.656;2023-07-13T18:35:48;99695.59;;;18.67;95.81
77299;BME280;66361;52.034;20.656;2023-07-13T18:39:52;99696.25;;;18.43;97.82
77299;BME280;66361;52.034;20.656;2023-07-13T18:43:55;99698.63;;;18.28;100.00
77299;BME280;66361;52.034;20.656;2023-07-13T18:48:00;99701.22;;;18.12;100.00
77299;BME280;66361;52.034;20.656;2023-07-13T18:52:07;99693.38;;;17.93;100.00
77299;BME280;66361;52.034;20.656;2023-07-13T18:56:17;99682.41;;;17.78;100.00
77299;BME280;66361;52.034;20.656;2023-07-13T19:00:23;99688.97;;;17.66;100.00
77299;BME280;66361;52.034;20.656;2023-07-13T19:04:31;99693.97;;;17.52;100.00
77299;BME280;66361;52.034;20.656;2023-07-13T19:08:37;99689.69;;;17.41;100.00
77299;BME280;66361;52.034;20.656;2023-07-13T19:12:51;99691.41;;;17.32;100.00
77299;BME280;66361;52.034;20.656;2023-07-13T19:16:55;99693.31;;;17.22;100.00
77299;BME280;66361;52.034;20.656;2023-07-13T19:21:02;99682.84;;;17.11;100.00
77299;BME280;66361;52.034;20.656;2023-07-13T19:25:12;99700.44;;;17.04;100.00
77299;BME280;66361;52.034;20.656;2023-07-13T19:29:15;99699.63;;;16.94;100.00
77299;BME280;66361;52.034;20.656;2023-07-13T19:33:20;99703.50;;;16.82;100.00
77299;BME280;66361;52.034;20.656;2023-07-13T19:37:26;99717.53;;;16.74;100.00
77299;BME280;66361;52.034;20.656;2023-07-13T19:41:29;99726.50;;;16.73;100.00
77299;BME280;66361;52.034;20.656;2023-07-13T19:45:34;99735.22;;;16.66;100.00
77299;BME280;66361;52.034;20.656;2023-07-13T19:49:39;99745.72;;;16.67;100.00
77299;BME280;66361;52.034;20.656;2023-07-13T19:53:44;99746.31;;;16.71;100.00
77299;BME280;66361;52.034;20.656;2023-07-13T19:57:47;99746.69;;;16.76;100.00
77299;BME280;66361;52.034;20.656;2023-07-13T20:01:52;99753.97;;;16.83;100.00
77299;BME280;66361;52.034;20.656;2023-07-13T20:05:55;99749.88;;;16.89;100.00
77299;BME280;66361;52.034;20.656;2023-07-13T20:10:00;99755.78;;;16.92;100.00
77299;BME280;66361;52.034;20.656;2023-07-13T20:14:14;99756.31;;;16.96;100.00
77299;BME280;66361;52.034;20.656;2023-07-13T20:18:18;99750.69;;;16.99;100.00
77299;BME280;66361;52.034;20.656;2023-07-13T20:22:22;99750.38;;;17.02;100.00
77299;BME280;66361;52.034;20.656;2023-07-13T20:26:27;99755.59;;;17.04;100.00
77299;BME280;66361;52.034;20.656;2023-07-13T20:30:31;99759.09;;;17.04;100.00
77299;BME280;66361;52.034;20.656;2023-07-13T20:34:37;99759.78;;;17.06;100.00
77299;BME280;66361;52.034;20.656;2023-07-13T20:38:42;99765.81;;;17.08;100.00
77299;BME280;66361;52.034;20.656;2023-07-13T20:42:47;99766.78;;;17.07;100.00
77299;BME280;66361;52.034;20.656;2023-07-13T20:46:50;99764.13;;;17.07;100.00
77299;BME280;66361;52.034;20.656;2023-07-13T20:50:55;99756.97;;;17.08;100.00
77299;BME280;66361;52.034;20.656;2023-07-13T20:54:59;99752.91;;;17.04;100.00
77299;BME280;66361;52.034;20.656;2023-07-13T20:59:04;99754.03;;;17.01;100.00
77299;BME280;66361;52.034;20.656;2023-07-13T21:03:15;99765.69;;;17.00;100.00
77299;BME280;66361;52.034;20.656;2023-07-13T21:07:19;99764.31;;;16.96;100.00
77299;BME280;66361;52.034;20.656;2023-07-13T21:11:23;99767.97;;;16.95;100.00
77299;BME280;66361;52.034;20.656;2023-07-13T21:15:30;99771.75;;;16.92;100.00
77299;BME280;66361;52.034;20.656;2023-07-13T21:19:34;99776.00;;;16.85;100.00
77299;BME280;66361;52.034;20.656;2023-07-13T21:23:38;99779.22;;;16.79;100.00